Time;durP1;ratioP1;P1;durP2;ratioP2;P2;SDS_P1;SDS_P2;PMS_P1;PMS_P2;Temp;Humidity;BMP_temperature;BMP_pressure;BME280_temperature;BME280_humidity;BME280_pressure;Samples;Min_cycle;Max_cycle;Signal;HPM_P1;HPM_P2
2022/05/10 00:01:43;;;;;;;802.92;751.53;;;16.60;99.90;;;;;;5033388;28;20209;-79
2022/05/10 00:04:10;;;;;;;819.45;767.17;;;16.50;99.90;;;;;;5033867;28;20565;-79
2022/05/10 00:06:43;;;;;;;831.95;777.58;;;16.40;99.90;;;;;;5032901;28;20179;-80
2022/05/10 00:09:11;;;;;;;858.67;802.70;;;16.40;99.90;;;;;;5034659;28;20276;-80
2022/05/10 00:11:37;;;;;;;825.30;772.53;;;16.40;99.90;;;;;;5049946;28;20250;-78
2022/05/10 00:14:04;;;;;;;835.47;781.55;;;16.30;99.90;;;;;;5050061;28;20190;-77
2022/05/10 00:16:40;;;;;;;853.92;798.55;;;16.30;99.90;;;;;;5043162;28;20534;-79
2022/05/10 00:19:06;;;;;;;915.88;855.58;;;16.30;99.90;;;;;;5053213;28;20227;-80
2022/05/10 00:21:32;;;;;;;869.50;812.58;;;16.30;99.90;;;;;;5052536;28;20182;-79
2022/05/10 00:24:00;;;;;;;869.60;813.33;;;16.30;99.90;;;;;;5053527;28;20518;-79
2022/05/10 00:26:26;;;;;;;854.33;798.83;;;16.20;99.90;;;;;;5047071;28;20182;-79
2022/05/10 00:28:52;;;;;;;860.85;804.90;;;16.20;99.90;;;;;;5034491;28;20214;-79
2022/05/10 00:31:18;;;;;;;846.72;791.72;;;16.20;99.90;;;;;;5042278;28;20186;-79
2022/05/10 00:33:44;;;;;;;859.30;803.45;;;16.20;99.90;;;;;;5047228;28;20189;-79
2022/05/10 00:36:12;;;;;;;890.83;832.20;;;16.20;99.90;;;;;;5034681;28;20544;-79
2022/05/10 00:38:40;;;;;;;926.40;864.78;;;16.10;99.90;;;;;;5039112;28;20648;-79
2022/05/10 00:41:31;;;;;;;939.88;877.22;;;16.10;99.90;;;;;;5031978;28;20209;-80
2022/05/10 00:44:36;;;;;;;998.08;928.78;;;16.10;99.90;;;;;;5037129;28;20170;-79
2022/05/10 00:47:16;;;;;;;1044.55;969.85;;;16.10;99.90;;;;;;5040925;28;20194;-79
2022/05/10 00:50:07;;;;;;;1022.55;950.35;;;16.10;99.90;;;;;;5047573;28;20209;-79
2022/05/10 00:52:47;;;;;;;1026.70;953.83;;;16.10;99.90;;;;;;5052458;28;20365;-80
2022/05/10 00:55:19;;;;;;;1032.70;959.17;;;16.00;99.90;;;;;;5051364;28;20186;-79
2022/05/10 00:58:03;;;;;;;1052.85;976.55;;;16.00;99.90;;;;;;5033948;28;20183;-78
2022/05/10 01:00:31;;;;;;;1049.70;971.50;;;15.90;99.90;;;;;;5051232;28;20255;-79
2022/05/10 01:03:16;;;;;;;883.80;825.55;;;15.90;99.90;;;;;;5037604;28;20214;-79
2022/05/10 01:06:16;;;;;;;829.08;774.53;;;15.90;99.90;;;;;;5039688;28;20189;-79
2022/05/10 01:08:59;;;;;;;831.78;778.03;;;15.90;99.90;;;;;;5038199;28;20275;-79
2022/05/10 01:11:30;;;;;;;817.38;765.00;;;16.10;99.90;;;;;;5048688;28;20178;-79
2022/05/10 01:13:59;;;;;;;841.83;787.40;;;16.20;99.90;;;;;;5032133;28;20175;-80
2022/05/10 01:16:25;;;;;;;884.42;826.70;;;16.20;99.90;;;;;;5039653;28;20186;-80
2022/05/10 01:18:53;;;;;;;840.05;785.47;;;16.30;99.90;;;;;;5045143;28;20183;-77
2022/05/10 01:21:24;;;;;;;895.33;836.83;;;16.30;99.90;;;;;;5031998;28;20178;-79
2022/05/10 01:24:01;;;;;;;930.13;868.08;;;16.20;99.90;;;;;;5037796;28;20269;-80
2022/05/10 01:27:05;;;;;;;977.33;910.38;;;16.20;99.90;;;;;;5033220;28;20182;-80
2022/05/10 01:29:46;;;;;;;1037.97;963.65;;;16.20;99.90;;;;;;5033081;28;20297;-79
2022/05/10 01:35:14;;;;;;;1071.80;992.45;;;16.10;99.90;;;;;;5044064;28;20216;-80
2022/05/10 01:37:45;;;;;;;1053.13;977.60;;;16.10;99.90;;;;;;5032987;28;20180;-80
2022/05/10 01:40:38;;;;;;;1056.72;980.50;;;16.10;99.90;;;;;;5033324;28;20191;-79
2022/05/10 01:43:16;;;;;;;1097.38;999.90;;;16.10;99.90;;;;;;5033667;28;20179;-79
2022/05/10 01:45:48;;;;;;;1081.57;996.35;;;16.10;99.90;;;;;;5033132;28;20253;-79
2022/05/10 01:48:18;;;;;;;1097.75;999.90;;;16.10;99.90;;;;;;5033079;28;20183;-79
2022/05/10 01:51:08;;;;;;;1096.90;999.42;;;16.00;99.90;;;;;;5044540;28;20737;-79
2022/05/10 01:53:36;;;;;;;1106.53;999.90;;;16.00;99.90;;;;;;5033359;28;20216;-79
2022/05/10 01:56:15;;;;;;;1092.80;999.53;;;16.00;99.90;;;;;;5041864;28;20256;-78
2022/05/10 01:58:42;;;;;;;1112.03;999.90;;;15.90;99.90;;;;;;5050690;28;20193;-79
2022/05/10 02:01:17;;;;;;;1102.03;999.90;;;15.90;99.90;;;;;;5036796;28;20214;-79
2022/05/10 02:04:01;;;;;;;1103.38;999.90;;;15.80;99.90;;;;;;5032777;28;20219;-78
2022/05/10 02:06:35;;;;;;;1114.60;999.90;;;15.80;99.90;;;;;;5045089;28;20189;-79
2022/05/10 02:09:19;;;;;;;1120.68;999.90;;;15.80;99.90;;;;;;5042019;28;20574;-77
2022/05/10 02:12:04;;;;;;;1124.13;999.90;;;15.80;99.90;;;;;;5031538;28;20183;-79
2022/05/10 02:14:38;;;;;;;1126.50;999.90;;;15.80;99.90;;;;;;5065368;28;20182;-79
2022/05/10 02:17:19;;;;;;;1119.72;999.90;;;15.70;99.90;;;;;;5037217;28;20542;-79
2022/05/10 02:20:12;;;;;;;1132.30;999.90;;;15.70;99.90;;;;;;5044044;28;20189;-79
2022/05/10 02:22:42;;;;;;;1130.53;999.90;;;15.70;99.90;;;;;;5047892;28;20632;-79
2022/05/10 02:25:16;;;;;;;1110.10;999.90;;;15.80;99.90;;;;;;5039088;28;20225;-77
2022/05/10 02:27:48;;;;;;;1120.10;999.90;;;15.80;99.90;;;;;;5035213;28;20631;-77
2022/05/10 02:30:19;;;;;;;1108.53;999.90;;;15.80;99.90;;;;;;5036440;28;20241;-77
2022/05/10 02:33:09;;;;;;;1106.07;999.90;;;15.70;99.90;;;;;;5049721;28;20193;-77
2022/05/10 02:35:38;;;;;;;1121.63;999.90;;;15.80;99.90;;;;;;5036300;28;20648;-77
2022/05/10 02:38:06;;;;;;;1102.18;999.90;;;15.80;99.90;;;;;;5035294;28;20358;-77
2022/05/10 02:40:33;;;;;;;1110.28;999.90;;;15.80;99.90;;;;;;5036200;28;20277;-77
2022/05/10 02:42:59;;;;;;;1113.55;999.90;;;15.80;99.90;;;;;;5068752;28;20230;-78
2022/05/10 02:45:25;;;;;;;1119.30;999.90;;;15.90;99.90;;;;;;5063486;28;20197;-79
2022/05/10 02:47:51;;;;;;;1114.93;999.90;;;15.90;99.90;;;;;;5054158;28;20639;-79
2022/05/10 02:50:24;;;;;;;1149.90;999.90;;;15.80;99.90;;;;;;5053244;28;20217;-80
2022/05/10 02:52:51;;;;;;;1148.68;999.90;;;15.80;99.90;;;;;;5041959;28;20210;-79
2022/05/10 02:55:43;;;;;;;1147.60;999.90;;;15.80;99.90;;;;;;5051354;28;20531;-79
2022/05/10 02:58:35;;;;;;;1158.35;999.90;;;15.80;99.90;;;;;;5067845;28;20183;-79
2022/05/10 03:01:22;;;;;;;1169.75;999.90;;;15.80;99.90;;;;;;5035349;28;20651;-79
2022/05/10 03:03:48;;;;;;;1167.47;999.90;;;15.90;99.90;;;;;;5045016;28;20190;-79
2022/05/10 03:06:20;;;;;;;1155.07;999.90;;;15.90;99.90;;;;;;5046984;28;20236;-79
2022/05/10 03:08:46;;;;;;;1159.68;999.90;;;16.00;99.90;;;;;;5047932;28;20185;-79
2022/05/10 03:11:13;;;;;;;1163.70;999.90;;;16.00;99.90;;;;;;5040740;28;20519;-79
2022/05/10 03:13:39;;;;;;;1170.75;999.90;;;16.00;99.90;;;;;;5043500;28;20189;-76
2022/05/10 03:16:06;;;;;;;1170.03;999.90;;;16.10;99.90;;;;;;5038178;28;20197;-78
2022/05/10 03:18:31;;;;;;;1164.05;999.90;;;16.20;99.90;;;;;;5050681;28;20178;-78
2022/05/10 03:21:00;;;;;;;1158.95;999.90;;;16.30;99.90;;;;;;5034941;28;20391;-77
2022/05/10 03:23:27;;;;;;;1149.38;999.90;;;16.20;99.90;;;;;;5035694;28;20189;-78
2022/05/10 03:25:54;;;;;;;1153.95;999.90;;;16.30;99.90;;;;;;5040175;28;20195;-78
2022/05/10 03:28:20;;;;;;;1155.28;999.90;;;16.40;99.90;;;;;;5033070;28;20187;-79
2022/05/10 03:30:47;;;;;;;1153.15;999.90;;;16.50;99.90;;;;;;5036632;28;20242;-78
2022/05/10 03:33:12;;;;;;;1168.05;999.90;;;16.50;99.90;;;;;;5035052;28;20187;-78
2022/05/10 03:35:39;;;;;;;1169.05;999.90;;;16.50;99.90;;;;;;5017746;28;20194;-77
2022/05/10 03:38:04;;;;;;;1180.55;999.90;;;16.40;99.90;;;;;;5035260;28;20187;-77
2022/05/10 03:40:30;;;;;;;1177.05;999.90;;;16.40;99.90;;;;;;5050453;28;20197;-77
2022/05/10 03:42:56;;;;;;;1196.93;999.90;;;16.40;99.90;;;;;;5034160;28;20640;-78
2022/05/10 03:45:23;;;;;;;1190.60;999.90;;;16.40;99.90;;;;;;5034992;28;20189;-78
2022/05/10 03:47:50;;;;;;;1195.93;999.90;;;16.40;99.90;;;;;;5050272;28;20646;-78
2022/05/10 03:50:19;;;;;;;1187.32;999.90;;;16.40;99.90;;;;;;5047734;28;20674;-79
2022/05/10 03:52:46;;;;;;;1178.13;999.90;;;16.50;99.90;;;;;;5033537;28;20182;-78
2022/05/10 03:55:15;;;;;;;1195.25;999.90;;;16.60;99.90;;;;;;5033463;28;20194;-78
2022/05/10 03:57:44;;;;;;;1197.95;999.90;;;16.70;99.90;;;;;;5035107;28;20182;-78
2022/05/10 04:00:14;;;;;;;1192.45;999.90;;;17.00;99.90;;;;;;5033357;28;20662;-79
2022/05/10 04:02:40;;;;;;;1197.72;999.90;;;17.20;99.90;;;;;;5038157;28;20305;-78
2022/05/10 04:05:06;;;;;;;1194.95;999.90;;;17.20;99.90;;;;;;5036446;28;20313;-79
2022/05/10 04:07:32;;;;;;;1195.93;999.90;;;17.30;99.90;;;;;;5036445;28;20187;-78
2022/05/10 04:09:58;;;;;;;1199.75;999.90;;;17.30;99.90;;;;;;5034795;28;20241;-79
2022/05/10 04:12:24;;;;;;;1197.75;999.90;;;17.30;99.90;;;;;;5035129;28;20268;-79
2022/05/10 04:14:49;;;;;;;1203.15;999.90;;;17.30;99.90;;;;;;5017422;28;20202;-78
2022/05/10 04:17:15;;;;;;;1199.15;999.90;;;17.10;99.90;;;;;;5043810;28;20201;-78
2022/05/10 04:19:41;;;;;;;1208.45;999.90;;;17.10;99.90;;;;;;5035857;28;20186;-78
2022/05/10 04:22:07;;;;;;;1221.68;999.90;;;17.30;99.90;;;;;;5066486;28;20183;-78
2022/05/10 04:24:33;;;;;;;1211.72;999.90;;;17.30;99.90;;;;;;5032832;28;20217;-80
2022/05/10 04:27:00;;;;;;;1215.88;999.90;;;17.20;99.90;;;;;;5033104;28;20191;-78
2022/05/10 04:29:27;;;;;;;1211.78;999.90;;;17.30;99.90;;;;;;5033841;28;20268;-81
2022/05/10 04:31:53;;;;;;;1214.70;999.90;;;17.20;99.90;;;;;;5032795;28;20263;-78
2022/05/10 04:34:18;;;;;;;1207.63;999.90;;;17.30;99.90;;;;;;5041878;28;20237;-77
2022/05/10 04:36:44;;;;;;;1212.10;999.90;;;17.30;99.90;;;;;;5032843;28;20186;-79
2022/05/10 04:39:14;;;;;;;1210.13;999.90;;;17.30;99.90;;;;;;5033618;28;20182;-77
2022/05/10 04:41:46;;;;;;;1214.32;999.90;;;17.50;99.90;;;;;;5034812;28;20547;-78
2022/05/10 04:44:12;;;;;;;1216.00;999.90;;;17.70;99.90;;;;;;5038876;28;20631;-77
2022/05/10 04:46:40;;;;;;;1215.05;999.90;;;17.70;99.90;;;;;;5042751;28;20194;-77
2022/05/10 04:49:07;;;;;;;1217.15;999.90;;;17.70;99.90;;;;;;5040748;28;20653;-77
2022/05/10 04:51:33;;;;;;;1219.65;999.90;;;17.60;99.90;;;;;;5043698;28;20429;-78
2022/05/10 04:53:59;;;;;;;1225.15;999.90;;;17.70;99.90;;;;;;5043371;28;20255;-77
2022/05/10 04:56:25;;;;;;;1217.88;999.90;;;17.90;99.90;;;;;;5035948;28;20198;-77
2022/05/10 04:58:54;;;;;;;1223.78;999.90;;;17.90;99.90;;;;;;5068386;28;20551;-77
2022/05/10 05:01:22;;;;;;;1218.82;999.90;;;18.00;99.90;;;;;;5041507;28;20260;-77
2022/05/10 05:03:49;;;;;;;1224.97;999.90;;;18.10;99.90;;;;;;5016551;28;20186;-77
2022/05/10 05:06:16;;;;;;;1223.32;999.90;;;18.20;99.90;;;;;;5032586;28;20320;-78
2022/05/10 05:08:41;;;;;;;1226.88;999.90;;;18.40;99.90;;;;;;5041164;28;20640;-78
2022/05/10 05:11:07;;;;;;;1219.18;999.90;;;18.50;99.90;;;;;;5048355;28;20232;-79
2022/05/10 05:13:33;;;;;;;1210.25;999.90;;;18.60;99.90;;;;;;5051884;28;20189;-77
2022/05/10 05:15:59;;;;;;;1211.30;999.90;;;18.70;99.90;;;;;;5035903;28;20205;-78
2022/05/10 05:18:25;;;;;;;1207.60;999.90;;;18.80;99.90;;;;;;5031935;28;20191;-77
2022/05/10 05:20:51;;;;;;;1204.30;999.90;;;19.00;99.90;;;;;;5051221;28;20198;-77
2022/05/10 05:23:18;;;;;;;1203.53;999.90;;;19.10;99.90;;;;;;5035556;28;20189;-76
2022/05/10 05:25:44;;;;;;;1197.10;999.90;;;19.00;99.90;;;;;;5046493;28;20627;-76
2022/05/10 05:28:10;;;;;;;1201.30;999.90;;;19.10;99.90;;;;;;5033087;28;20601;-77
2022/05/10 05:30:37;;;;;;;1200.20;999.90;;;19.10;99.90;;;;;;5033067;28;20588;-77
2022/05/10 05:33:04;;;;;;;1197.13;999.90;;;19.10;99.90;;;;;;5036239;28;20189;-79
2022/05/10 05:35:29;;;;;;;1182.15;999.90;;;19.20;99.90;;;;;;5048003;28;20186;-78
2022/05/10 05:37:55;;;;;;;1180.60;999.90;;;19.30;99.90;;;;;;5032032;28;20600;-77
2022/05/10 05:40:22;;;;;;;1177.13;999.90;;;19.30;99.90;;;;;;5031508;28;20182;-78
2022/05/10 05:42:49;;;;;;;1175.75;999.90;;;19.60;99.90;;;;;;5033168;28;20273;-78
2022/05/10 05:45:17;;;;;;;1155.63;999.90;;;19.70;99.90;;;;;;5049034;28;20551;-78
2022/05/10 05:47:43;;;;;;;1146.68;999.90;;;19.80;99.90;;;;;;5052095;28;20185;-78
2022/05/10 05:50:11;;;;;;;1131.45;999.90;;;19.80;99.90;;;;;;5033197;28;20211;-78
2022/05/10 05:52:37;;;;;;;1099.65;999.90;;;19.90;99.90;;;;;;5035991;28;20190;-79
2022/05/10 05:55:04;;;;;;;1099.25;999.90;;;20.00;99.90;;;;;;5035890;28;20265;-78
2022/05/10 05:57:30;;;;;;;1081.85;995.22;;;20.10;99.90;;;;;;5069284;28;20628;-78
2022/05/10 05:59:58;;;;;;;1071.40;989.10;;;20.10;99.90;;;;;;5047280;28;20190;-78
2022/05/10 06:02:24;;;;;;;1040.47;962.92;;;20.00;99.90;;;;;;5048553;28;20191;-78
2022/05/10 06:04:51;;;;;;;1027.10;951.45;;;20.10;99.90;;;;;;5057058;28;20166;-78
2022/05/10 06:07:18;;;;;;;1025.72;950.55;;;20.30;99.90;;;;;;5052359;28;20183;-78
2022/05/10 06:09:45;;;;;;;1040.30;961.97;;;20.30;99.90;;;;;;5069415;28;20594;-78
2022/05/10 06:12:16;;;;;;;1039.20;961.15;;;20.30;99.90;;;;;;5036221;28;20182;-78
2022/05/10 06:14:43;;;;;;;1021.08;946.60;;;20.20;99.90;;;;;;5036548;28;20187;-77
2022/05/10 06:17:10;;;;;;;1019.55;944.08;;;20.20;99.90;;;;;;5035680;28;20183;-78
2022/05/10 06:19:38;;;;;;;991.00;918.22;;;20.20;99.90;;;;;;5034948;28;20223;-77
2022/05/10 06:22:06;;;;;;;1009.65;935.42;;;20.40;99.90;;;;;;5039107;28;20175;-78
2022/05/10 06:24:32;;;;;;;998.30;925.78;;;20.50;99.90;;;;;;5034749;28;20265;-78
2022/05/10 06:27:00;;;;;;;972.70;903.33;;;20.40;99.90;;;;;;5068256;28;20188;-78
2022/05/10 06:29:26;;;;;;;942.78;875.33;;;20.40;99.90;;;;;;5034241;28;20206;-78
2022/05/10 06:31:51;;;;;;;893.40;831.58;;;20.70;99.90;;;;;;5054806;28;20193;-78
2022/05/10 06:34:17;;;;;;;823.40;767.50;;;20.80;99.90;;;;;;5036479;28;20253;-72
2022/05/10 06:36:43;;;;;;;738.58;689.70;;;21.10;99.90;;;;;;5035119;28;20218;-71
2022/05/10 06:39:09;;;;;;;633.72;592.50;;;21.20;99.90;;;;;;5034596;28;20274;-71
2022/05/10 06:41:35;;;;;;;421.02;394.00;;;21.30;99.90;;;;;;5067825;28;20179;-71
2022/05/10 06:44:02;;;;;;;1999.90;999.90;;;21.40;99.90;;;;;;5037950;28;20660;-70
2022/05/10 06:46:31;;;;;;;1999.90;999.90;;;21.50;99.90;;;;;;5073129;28;20273;-70
2022/05/10 06:48:57;;;;;;;1999.90;999.90;;;21.50;99.90;;;;;;5070319;28;20209;-72
2022/05/10 06:51:24;;;;;;;1999.90;999.90;;;21.90;99.90;;;;;;5054501;28;20235;-73
2022/05/10 06:53:51;;;;;;;1999.90;999.90;;;21.80;99.90;;;;;;5045199;28;20278;-72
2022/05/10 06:56:17;;;;;;;1999.90;999.90;;;22.00;99.90;;;;;;5068037;28;20197;-73
2022/05/10 06:58:43;;;;;;;1999.90;999.90;;;22.10;99.90;;;;;;5055803;28;20529;-71
2022/05/10 07:01:13;;;;;;;1999.90;999.90;;;22.10;99.90;;;;;;5042506;28;20206;-70
2022/05/10 07:03:47;;;;;;;1999.90;999.90;;;22.10;99.90;;;;;;5035974;28;20194;-71
2022/05/10 07:06:16;;;;;;;1999.90;999.90;;;22.10;99.90;;;;;;5036129;28;20761;-73
2022/05/10 07:08:43;;;;;;;1999.90;999.90;;;22.00;99.90;;;;;;5034685;28;20216;-73
2022/05/10 07:11:09;;;;;;;1999.90;999.90;;;22.10;99.90;;;;;;5033941;28;20213;-73
2022/05/10 07:13:36;;;;;;;1999.90;999.90;;;22.00;99.90;;;;;;5061450;28;20200;-73
2022/05/10 07:16:03;;;;;;;1999.90;999.90;;;22.00;99.90;;;;;;5036454;28;20229;-72
2022/05/10 07:18:29;;;;;;;1999.90;999.90;;;22.00;99.90;;;;;;5019892;28;20248;-73
2022/05/10 07:20:55;;;;;;;1999.90;999.90;;;22.00;99.90;;;;;;5048146;28;20205;-73
2022/05/10 07:23:29;;;;;;;1999.90;999.90;;;22.20;99.90;;;;;;5034065;28;20194;-72
2022/05/10 07:25:55;;;;;;;1999.90;999.90;;;22.40;99.90;;;;;;5035530;28;20702;-70
2022/05/10 07:28:21;;;;;;;1999.90;999.90;;;22.60;99.90;;;;;;5067594;28;20285;-75
2022/05/10 07:30:47;;;;;;;1999.90;999.90;;;23.00;99.90;;;;;;5039501;28;20249;-71
2022/05/10 07:33:15;;;;;;;1999.90;999.90;;;23.10;99.90;;;;;;5054319;28;20331;-71
2022/05/10 07:38:25;;;;;;;1999.90;999.90;;;23.10;99.90;;;;;;5035329;28;20222;-72
2022/05/10 07:40:50;;;;;;;1999.90;999.90;;;22.80;99.90;;;;;;5043237;28;20655;-72
2022/05/10 07:43:18;;;;;;;1999.90;999.90;;;22.60;99.90;;;;;;5033803;28;20191;-72
2022/05/10 07:45:46;;;;;;;1999.90;999.90;;;22.50;99.90;;;;;;5082364;28;20181;-71
2022/05/10 07:48:12;;;;;;;1999.90;999.90;;;22.30;99.90;;;;;;5039147;28;20190;-72
2022/05/10 07:50:39;;;;;;;1999.90;999.90;;;22.50;99.90;;;;;;5034883;28;20300;-71
2022/05/10 07:53:08;;;;;;;1999.90;999.90;;;22.70;99.90;;;;;;5034794;28;20187;-72
2022/05/10 07:55:35;;;;;;;1999.90;999.90;;;22.80;99.90;;;;;;5053672;28;20193;-72
2022/05/10 07:58:01;;;;;;;1999.90;999.90;;;22.80;99.90;;;;;;5035763;28;20182;-73
2022/05/10 08:00:29;;;;;;;1999.90;999.90;;;23.00;99.90;;;;;;5048789;28;20644;-71
2022/05/10 08:02:55;;;;;;;1999.90;999.90;;;23.20;99.90;;;;;;5034974;28;20320;-72
2022/05/10 08:05:23;;;;;;;1999.90;999.90;;;23.40;99.90;;;;;;5033528;28;20265;-72
2022/05/10 08:07:50;;;;;;;1999.90;999.90;;;23.60;99.90;;;;;;5066979;28;20178;-71
2022/05/10 08:10:19;;;;;;;1999.90;999.90;;;23.40;99.90;;;;;;5034578;28;20588;-72
2022/05/10 08:12:45;;;;;;;1999.90;999.90;;;23.80;99.90;;;;;;5049889;28;20568;-72
2022/05/10 08:15:11;;;;;;;1999.90;999.90;;;24.00;99.90;;;;;;5033067;28;20191;-73
2022/05/10 08:17:37;;;;;;;1999.90;999.90;;;23.80;99.90;;;;;;5034699;28;20183;-72
2022/05/10 08:20:04;;;;;;;1999.90;999.90;;;23.80;99.90;;;;;;5034526;28;20285;-71
2022/05/10 08:25:54;;;;;;;1999.90;999.90;;;24.20;99.90;;;;;;5034437;28;20182;-70
2022/05/10 08:28:24;;;;;;;1999.90;999.90;;;24.50;99.90;;;;;;5066612;28;20186;-71
2022/05/10 08:30:50;;;;;;;1999.90;999.90;;;24.50;99.90;;;;;;5034443;28;20232;-72
2022/05/10 08:33:23;;;;;;;1999.90;999.90;;;24.60;99.90;;;;;;5034225;28;20182;-72
2022/05/10 08:35:50;;;;;;;1999.90;999.90;;;24.70;99.90;;;;;;5034944;28;20531;-72
2022/05/10 08:38:16;;;;;;;1999.90;999.90;;;24.70;99.90;;;;;;5032829;28;20198;-72
2022/05/10 08:41:09;;;;;;;1999.90;999.90;;;24.70;99.90;;;;;;5066305;28;20198;-72
2022/05/10 08:43:59;;;;;;;1999.90;999.90;;;24.80;99.90;;;;;;5034195;28;20262;-72
2022/05/10 08:46:35;;;;;;;1999.90;999.90;;;24.90;99.90;;;;;;5034541;28;20181;-72
2022/05/10 08:49:14;;;;;;;1999.90;999.90;;;25.00;99.90;;;;;;5053674;28;20211;-72
2022/05/10 08:51:40;;;;;;;1999.90;999.90;;;25.20;99.90;;;;;;5034062;28;20182;-71
2022/05/10 08:54:07;;;;;;;1999.90;999.90;;;25.70;99.90;;;;;;5034018;28;20183;-72
2022/05/10 08:56:43;;;;;;;1999.90;999.90;;;25.90;99.90;;;;;;5033858;28;20583;-72
2022/05/10 08:59:32;;;;;;;1640.72;853.60;;;26.30;99.90;;;;;;5033678;28;20182;-73
2022/05/10 09:02:09;;;;;;;1999.90;999.90;;;27.20;99.90;;;;;;5033746;28;20674;-72
2022/05/10 09:04:35;;;;;;;1662.43;878.58;;;27.60;99.90;;;;;;5051339;28;20185;-73
2022/05/10 09:07:33;;;;;;;625.70;502.60;;;28.20;99.90;;;;;;5052821;28;20657;-73
2022/05/10 09:10:24;;;;;;;610.47;482.50;;;28.50;99.90;;;;;;5033388;28;20205;-73
2022/05/10 09:13:01;;;;;;;737.47;615.83;;;28.30;99.90;;;;;;5039088;28;20178;-72
2022/05/10 09:15:32;;;;;;;1720.72;936.17;;;28.30;99.90;;;;;;5033490;28;20213;-72
2022/05/10 09:17:58;;;;;;;752.40;646.05;;;28.40;99.90;;;;;;5047837;28;20188;-72
2022/05/10 09:20:26;;;;;;;825.75;703.30;;;28.30;99.90;;;;;;5042219;28;20202;-72
2022/05/10 09:23:16;;;;;;;826.55;695.33;;;28.20;99.90;;;;;;5065282;28;20186;-72
2022/05/10 09:25:45;;;;;;;887.80;748.70;;;28.20;99.90;;;;;;5032212;28;20189;-72
2022/05/10 09:28:35;;;;;;;893.28;737.83;;;28.00;99.90;;;;;;5048995;28;20209;-72
2022/05/10 09:37:14;;;;;;;640.33;476.30;;;26.10;99.90;;;;;;5053205;28;20184;-71
2022/05/10 09:39:50;;;;;;;1999.90;999.90;;;26.20;99.90;;;;;;5037325;28;20642;-75
2022/05/10 09:42:37;;;;;;;1999.90;999.90;;;25.80;99.90;;;;;;5051248;28;20179;-73
2022/05/10 09:45:23;;;;;;;1999.90;999.90;;;25.60;99.90;;;;;;5036056;28;20201;-72
2022/05/10 09:48:08;;;;;;;672.40;496.70;;;25.80;99.90;;;;;;5035540;28;20546;-73
2022/05/10 09:50:54;;;;;;;1679.95;882.75;;;26.00;99.90;;;;;;5035526;28;20221;-72
2022/05/10 09:53:27;;;;;;;1678.25;883.97;;;26.40;99.90;;;;;;5032856;28;20203;-73
2022/05/10 09:56:05;;;;;;;795.78;620.72;;;26.60;99.90;;;;;;5046631;28;20277;-73
2022/05/10 09:58:35;;;;;;;1027.63;817.53;;;27.00;99.90;;;;;;5033128;28;20189;-72
2022/05/10 10:01:04;;;;;;;1051.13;847.53;;;27.50;99.90;;;;;;5039793;28;20289;-73
2022/05/10 10:03:33;;;;;;;895.45;727.53;;;27.70;99.90;;;;;;5038000;28;20697;-72
2022/05/10 10:06:31;;;;;;;1417.90;833.97;;;27.60;99.90;;;;;;5033178;28;20520;-73
2022/05/10 10:08:58;;;;;;;845.53;687.75;;;27.20;99.90;;;;;;5030959;28;20647;-71
2022/05/10 10:11:25;;;;;;;981.42;785.47;;;27.10;99.90;;;;;;5032984;28;20185;-71
2022/05/10 10:13:55;;;;;;;892.22;711.35;;;27.10;99.90;;;;;;5032789;28;20183;-71
2022/05/10 10:16:30;;;;;;;922.38;730.10;;;27.10;99.90;;;;;;5064922;28;20541;-71
2022/05/10 10:19:04;;;;;;;782.22;597.17;;;27.00;99.90;;;;;;5065317;28;20190;-71
2022/05/10 10:21:43;;;;;;;1704.13;905.78;;;26.40;99.90;;;;;;5031999;28;20193;-72
2022/05/10 10:24:16;;;;;;;1675.57;884.50;;;26.30;99.90;;;;;;5031746;28;20581;-73
2022/05/10 10:26:49;;;;;;;781.38;599.97;;;26.50;99.90;;;;;;5031293;28;20182;-71
2022/05/10 10:29:37;;;;;;;1681.97;888.00;;;26.90;99.90;;;;;;5032865;28;20206;-71
2022/05/10 10:32:16;;;;;;;1655.30;866.47;;;26.60;99.90;;;;;;5031197;28;20222;-70
2022/05/10 10:35:09;;;;;;;1661.30;871.50;;;26.60;99.90;;;;;;5036500;28;20194;-72
2022/05/10 10:37:38;;;;;;;1999.90;999.90;;;26.40;99.90;;;;;;5033635;28;20186;-71
2022/05/10 10:40:22;;;;;;;1999.90;999.90;;;26.60;99.90;;;;;;5046031;28;20214;-72
2022/05/10 10:42:59;;;;;;;822.50;636.35;;;26.70;99.90;;;;;;5068475;28;20652;-72
2022/05/10 10:45:38;;;;;;;1999.90;999.90;;;27.00;99.90;;;;;;5036335;28;20216;-71
2022/05/10 10:48:46;;;;;;;1683.22;893.67;;;27.30;99.90;;;;;;5036650;28;20197;-72
2022/05/10 10:51:15;;;;;;;1610.18;831.00;;;27.00;99.90;;;;;;5051160;28;20198;-63
2022/05/10 10:53:42;;;;;;;1999.90;999.90;;;26.80;99.90;;;;;;5041409;28;20537;-71
2022/05/10 10:56:17;;;;;;;706.92;534.72;;;26.50;99.90;;;;;;5034890;28;20191;-71
2022/05/10 10:59:25;;;;;;;1704.30;908.03;;;26.60;99.90;;;;;;5036013;28;20635;-71
2022/05/10 11:02:10;;;;;;;1712.38;913.85;;;26.70;99.90;;;;;;5074029;28;20202;-71
2022/05/10 11:04:57;;;;;;;787.10;615.60;;;27.00;99.90;;;;;;5036752;28;20178;-71
2022/05/10 11:07:48;;;;;;;919.25;726.30;;;27.30;99.90;;;;;;5036033;28;20624;-71
2022/05/10 11:10:29;;;;;;;940.55;734.25;;;27.30;99.90;;;;;;5034742;28;20256;-72
2022/05/10 11:13:09;;;;;;;989.08;793.80;;;27.20;99.90;;;;;;5040032;28;20221;-73
2022/05/10 11:15:49;;;;;;;942.53;744.80;;;27.10;99.90;;;;;;5040943;28;20240;-71
2022/05/10 11:18:26;;;;;;;1023.70;812.40;;;26.90;99.90;;;;;;5080163;28;20185;-73
2022/05/10 11:21:13;;;;;;;983.97;794.47;;;27.40;99.90;;;;;;5037849;28;20188;-72
2022/05/10 11:24:17;;;;;;;843.72;684.10;;;27.70;99.90;;;;;;5034416;28;20540;-71
2022/05/10 11:27:01;;;;;;;943.92;764.00;;;27.60;99.90;;;;;;5042022;28;20189;-73
2022/05/10 11:29:26;;;;;;;972.65;784.60;;;27.70;99.90;;;;;;5079863;28;20232;-72
2022/05/10 11:32:15;;;;;;;1046.13;842.58;;;27.60;99.90;;;;;;5046045;28;20182;-71
2022/05/10 11:34:46;;;;;;;1045.40;839.83;;;27.40;99.90;;;;;;5035655;28;20196;-72
2022/05/10 11:37:24;;;;;;;997.30;801.22;;;27.40;99.90;;;;;;5034153;28;20190;-73
2022/05/10 11:40:01;;;;;;;1058.55;856.15;;;27.30;99.90;;;;;;5035151;28;20677;-72
2022/05/10 11:42:35;;;;;;;1062.97;870.60;;;27.40;99.90;;;;;;5036042;28;20268;-73
2022/05/10 11:45:42;;;;;;;996.45;826.38;;;27.70;99.90;;;;;;5035136;28;20647;-72
2022/05/10 11:48:12;;;;;;;1081.57;894.63;;;27.60;99.90;;;;;;5036148;28;20263;-73
2022/05/10 11:51:44;;;;;;;1067.03;884.70;;;27.90;99.90;;;;;;5052807;28;20309;-73
2022/05/10 11:54:12;;;;;;;972.58;813.47;;;28.00;99.90;;;;;;5030179;28;20556;-72
2022/05/10 11:56:40;;;;;;;1461.13;879.13;;;27.70;99.90;;;;;;5035342;28;20251;-73
2022/05/10 11:59:14;;;;;;;972.50;799.75;;;27.60;99.90;;;;;;5048036;28;20185;-70
2022/05/10 12:01:48;;;;;;;1210.82;827.30;;;27.50;99.90;;;;;;5036508;28;20197;-71
2022/05/10 12:04:28;;;;;;;1033.60;850.20;;;27.50;99.90;;;;;;5066637;28;20201;-72
2022/05/10 12:07:20;;;;;;;976.13;783.75;;;27.50;99.90;;;;;;5034552;28;20190;-71
2022/05/10 12:09:52;;;;;;;1066.25;883.28;;;27.70;99.90;;;;;;5041961;28;20567;-71
2022/05/10 12:12:32;;;;;;;1012.28;828.60;;;27.90;99.90;;;;;;5044843;28;20635;-71
2022/05/10 12:21:19;;;;;;;994.78;812.42;;;27.70;99.90;;;;;;5046980;28;20193;-70
2022/05/10 12:24:03;;;;;;;1013.33;836.20;;;28.00;99.90;;;;;;5051079;28;20259;-70
2022/05/10 12:26:35;;;;;;;1060.43;885.90;;;28.10;99.90;;;;;;5033264;28;20651;-71
2022/05/10 12:29:03;;;;;;;1034.15;874.38;;;28.30;99.90;;;;;;5032689;28;20192;-71
2022/05/10 12:31:32;;;;;;;1023.08;853.05;;;28.30;99.90;;;;;;5042564;28;20626;-71
2022/05/10 12:34:08;;;;;;;1045.07;854.83;;;28.00;99.90;;;;;;5036921;28;20194;-70
2022/05/10 12:36:38;;;;;;;1035.28;841.05;;;27.70;99.90;;;;;;5034150;28;20261;-71
2022/05/10 12:39:26;;;;;;;982.28;786.13;;;27.70;99.90;;;;;;5032515;28;20513;-70
2022/05/10 12:42:00;;;;;;;1000.20;800.58;;;27.70;99.90;;;;;;5033644;28;20631;-70
2022/05/10 12:44:59;;;;;;;867.67;685.63;;;27.60;99.90;;;;;;5065841;28;20174;-70
2022/05/10 12:47:30;;;;;;;754.40;590.95;;;27.60;99.90;;;;;;5044246;28;20265;-70
2022/05/10 12:50:30;;;;;;;849.70;666.75;;;27.60;99.90;;;;;;5036597;28;20202;-72